createdAt,value
2023-03-24T00:00:37.791Z,74.93
2023-03-24T00:03:07.484Z,75.23
2023-03-24T00:05:35.712Z,76.16
2023-03-24T00:08:04.678Z,77.40
2023-03-24T00:10:34.939Z,78.28
2023-03-24T00:13:03.115Z,78.60
2023-03-24T00:15:31.655Z,78.48
2023-03-24T00:17:59.501Z,78.92
2023-03-24T00:20:29.364Z,78.82
2023-03-24T00:22:58.800Z,78.47
2023-03-24T00:25:29.039Z,79.58
2023-03-24T00:27:58.109Z,78.66
2023-03-24T00:30:27.210Z,78.46
2023-03-24T00:32:55.141Z,79.31
2023-03-24T00:35:23.174Z,79.67
2023-03-24T00:37:52.835Z,80.21
2023-03-24T00:40:22.178Z,81.03
2023-03-24T00:42:51.381Z,81.73
2023-03-24T00:45:23.397Z,82.31
2023-03-24T00:47:54.041Z,83.00
2023-03-24T00:50:26.989Z,83.06
2023-03-24T00:52:58.257Z,83.24
2023-03-24T00:55:28.439Z,82.65
2023-03-24T00:57:57.209Z,82.98
2023-03-24T01:00:27.275Z,83.93
2023-03-24T01:02:57.329Z,84.56
2023-03-24T01:05:27.978Z,85.83
2023-03-24T01:07:59.326Z,85.83
2023-03-24T01:10:28.140Z,86.15
2023-03-24T01:12:58.142Z,86.49
2023-03-24T01:15:29.697Z,86.35
2023-03-24T01:17:58.323Z,86.42
2023-03-24T01:20:26.551Z,86.48
2023-03-24T01:22:54.519Z,86.75
2023-03-24T01:25:25.583Z,86.73
2023-03-24T01:27:53.990Z,87.09
2023-03-24T01:30:24.516Z,87.33
2023-03-24T01:32:53.399Z,86.73
2023-03-24T01:35:22.398Z,86.61
2023-03-24T01:37:50.851Z,86.09
2023-03-24T01:40:21.251Z,86.87
2023-03-24T01:42:52.148Z,85.19
2023-03-24T01:45:58.262Z,85.47
2023-03-24T01:48:29.713Z,85.67
2023-03-24T01:51:01.743Z,85.86
2023-03-24T01:53:31.573Z,84.64
2023-03-24T01:56:00.363Z,85.70
2023-03-24T01:58:32.250Z,85.51
2023-03-24T02:01:00.194Z,85.76
2023-03-24T02:03:33.855Z,86.50
2023-03-24T02:06:03.563Z,86.83
2023-03-24T02:08:38.254Z,87.27
2023-03-24T02:11:06.611Z,87.03
2023-03-24T02:13:36.147Z,86.13
2023-03-24T02:16:20.867Z,86.64
2023-03-24T02:18:57.813Z,85.58
2023-03-24T02:22:07.992Z,86.00
2023-03-24T02:25:06.889Z,87.23
2023-03-24T02:28:09.454Z,85.05
2023-03-24T02:31:09.796Z,85.23
2023-03-24T02:34:15.148Z,81.97
2023-03-24T02:37:02.986Z,80.29
2023-03-24T02:39:46.376Z,80.37
2023-03-24T02:42:26.300Z,78.23
2023-03-24T02:45:05.573Z,78.04
2023-03-24T02:47:43.737Z,78.00
2023-03-24T02:50:19.336Z,74.84
2023-03-24T02:52:51.694Z,72.26
2023-03-24T02:55:25.473Z,70.80
2023-03-24T02:57:59.047Z,69.48
2023-03-24T03:00:32.573Z,69.30
2023-03-24T03:03:04.287Z,67.92
2023-03-24T03:05:36.527Z,67.01
2023-03-24T03:08:08.803Z,66.67
2023-03-24T03:10:41.736Z,66.42
2023-03-24T03:13:14.032Z,65.54
2023-03-24T03:15:46.483Z,66.29
2023-03-24T03:18:18.812Z,65.96
2023-03-24T03:20:53.194Z,66.24
2023-03-24T03:23:26.232Z,66.10
2023-03-24T03:26:05.910Z,66.83
2023-03-24T03:28:34.959Z,66.38
2023-03-24T03:31:07.641Z,67.13
2023-03-24T03:33:40.693Z,68.30
2023-03-24T03:36:15.794Z,68.78
2023-03-24T03:39:02.564Z,69.80
2023-03-24T03:41:32.073Z,70.69
2023-03-24T03:44:00.210Z,71.45
2023-03-24T03:46:28.160Z,72.74
2023-03-24T03:48:56.044Z,73.91
2023-03-24T03:51:24.032Z,74.98
2023-03-24T03:53:55.789Z,75.65
2023-03-24T03:56:28.819Z,76.45
2023-03-24T03:58:58.258Z,77.08
2023-03-24T04:01:29.188Z,77.11
2023-03-24T04:04:12.438Z,78.25
2023-03-24T04:06:47.139Z,77.81
2023-03-24T04:09:27.419Z,77.95
2023-03-24T04:12:12.677Z,77.61
2023-03-24T04:15:13.566Z,78.15
2023-03-24T04:17:52.958Z,79.54
2023-03-24T04:20:26.802Z,79.98
2023-03-24T04:23:09.295Z,80.92
2023-03-24T04:25:46.567Z,81.11
2023-03-24T04:28:26.325Z,81.78
2023-03-24T04:31:01.746Z,81.47
2023-03-24T04:33:39.269Z,81.55
2023-03-24T04:36:18.935Z,81.98
2023-03-24T04:38:50.404Z,82.19
2023-03-24T04:41:20.511Z,82.63
2023-03-24T04:43:49.750Z,81.95
2023-03-24T04:46:18.940Z,81.93
2023-03-24T04:48:48.102Z,82.20
2023-03-24T04:51:16.981Z,82.03
2023-03-24T04:53:44.800Z,82.71
2023-03-24T04:56:30.317Z,83.43
2023-03-24T04:58:58.942Z,83.95
2023-03-24T05:01:30.236Z,84.21
2023-03-24T05:03:58.609Z,84.64
2023-03-24T05:06:27.535Z,84.00
2023-03-24T05:08:57.637Z,84.32
2023-03-24T05:11:25.860Z,84.29
2023-03-24T05:13:53.738Z,83.69
2023-03-24T05:16:21.935Z,83.35
2023-03-24T05:18:50.892Z,82.45
2023-03-24T05:21:20.439Z,82.80
2023-03-24T05:23:48.214Z,81.99
2023-03-24T05:26:16.210Z,81.78
2023-03-24T05:28:43.963Z,82.65
2023-03-24T05:31:12.188Z,82.63
2023-03-24T05:33:39.888Z,83.06
2023-03-24T05:36:09.951Z,82.63
2023-03-24T05:38:37.695Z,82.95
2023-03-24T05:41:06.408Z,83.31
2023-03-24T05:43:34.390Z,82.81
2023-03-24T05:46:02.557Z,82.94
2023-03-24T05:48:30.230Z,83.03
2023-03-24T05:50:58.062Z,82.42
2023-03-24T05:53:27.178Z,82.16
2023-03-24T05:55:55.222Z,82.63
2023-03-24T05:58:23.095Z,82.60
2023-03-24T06:00:50.755Z,82.08
2023-03-24T06:03:18.690Z,81.74
2023-03-24T06:05:47.755Z,81.62
2023-03-24T06:08:17.200Z,81.58
2023-03-24T06:10:46.324Z,81.76
2023-03-24T06:13:14.006Z,81.99
2023-03-24T06:15:42.870Z,81.52
2023-03-24T06:18:14.080Z,82.06
2023-03-24T06:20:42.393Z,81.05
2023-03-24T06:23:10.407Z,81.26
2023-03-24T06:25:38.290Z,80.91
2023-03-24T06:28:12.320Z,80.94
2023-03-24T06:30:40.525Z,80.93
2023-03-24T06:33:08.455Z,81.08
2023-03-24T06:35:36.610Z,81.42
2023-03-24T06:38:04.858Z,81.74
2023-03-24T06:40:32.880Z,82.49
2023-03-24T06:43:00.928Z,82.73
2023-03-24T06:45:31.266Z,82.87
2023-03-24T06:47:59.056Z,82.55
2023-03-24T06:50:27.190Z,82.42
2023-03-24T06:52:55.023Z,81.62
2023-03-24T06:55:22.741Z,81.27
2023-03-24T06:57:50.379Z,80.42
2023-03-24T07:00:18.991Z,80.19
2023-03-24T07:02:48.287Z,79.42
2023-03-24T07:05:16.321Z,79.53
2023-03-24T07:10:15.554Z,78.92
2023-03-24T07:12:43.274Z,78.81
2023-03-24T07:15:11.599Z,78.74
2023-03-24T07:17:39.452Z,78.31
2023-03-24T07:20:09.896Z,78.39
2023-03-24T07:22:37.624Z,78.02
2023-03-24T07:25:07.973Z,78.02
2023-03-24T07:27:39.420Z,77.77
2023-03-24T07:30:09.614Z,78.02
2023-03-24T07:32:39.517Z,77.97
2023-03-24T07:35:10.880Z,77.86
2023-03-24T07:37:38.609Z,77.46
2023-03-24T07:40:11.132Z,77.58
2023-03-24T07:42:39.212Z,77.49
2023-03-24T07:45:09.056Z,77.75
2023-03-24T07:47:37.025Z,77.76
2023-03-24T07:50:09.929Z,77.32
2023-03-24T07:52:40.065Z,77.22
2023-03-24T07:55:10.868Z,76.13
2023-03-24T07:57:39.235Z,76.93
2023-03-24T08:00:14.985Z,76.77
2023-03-24T08:02:43.228Z,76.23
2023-03-24T08:05:14.173Z,76.56
2023-03-24T08:07:44.290Z,76.06
2023-03-24T08:10:13.476Z,76.03
2023-03-24T08:12:41.868Z,76.28
2023-03-24T08:15:10.701Z,76.25
2023-03-24T08:17:38.447Z,76.07
2023-03-24T08:20:14.300Z,76.26
2023-03-24T08:22:49.889Z,75.99
2023-03-24T08:25:19.884Z,75.69
2023-03-24T08:27:48.628Z,74.83
2023-03-24T08:30:18.466Z,75.04
2023-03-24T08:32:47.148Z,74.65
2023-03-24T08:35:18.797Z,74.28
2023-03-24T08:37:47.992Z,75.01
2023-03-24T08:40:19.444Z,76.59
2023-03-24T08:42:50.364Z,77.20
2023-03-24T08:45:20.973Z,75.87
2023-03-24T08:47:50.429Z,74.53
2023-03-24T08:50:19.305Z,75.38
2023-03-24T08:52:48.921Z,75.17
2023-03-24T08:55:17.569Z,75.76
2023-03-24T08:57:45.662Z,75.04
2023-03-24T09:00:15.304Z,73.96
2023-03-24T09:02:44.963Z,73.26
2023-03-24T09:05:13.159Z,73.25
2023-03-24T09:07:40.911Z,72.84
2023-03-24T09:10:11.452Z,73.23
2023-03-24T09:12:40.125Z,73.00
2023-03-24T09:15:11.751Z,73.14
2023-03-24T09:17:41.808Z,72.71
2023-03-24T09:20:12.624Z,72.01
2023-03-24T09:22:43.414Z,72.05
2023-03-24T09:25:15.412Z,72.24
2023-03-24T09:27:43.250Z,71.79
2023-03-24T09:30:12.027Z,72.12
2023-03-24T09:32:40.025Z,71.73
2023-03-24T09:35:09.231Z,71.26
2023-03-24T09:37:38.443Z,71.56
2023-03-24T09:40:07.768Z,71.57
2023-03-24T09:42:39.959Z,72.66
2023-03-24T09:45:15.326Z,72.34
2023-03-24T09:47:49.435Z,73.63
2023-03-24T09:50:25.022Z,75.52
2023-03-24T09:52:56.087Z,77.01
2023-03-24T09:55:26.556Z,78.02
2023-03-24T09:58:00.221Z,77.69
2023-03-24T10:00:30.364Z,77.95
2023-03-24T10:03:01.397Z,76.76
2023-03-24T10:05:36.736Z,77.70
2023-03-24T10:08:13.610Z,76.45
2023-03-24T10:10:51.572Z,75.68
2023-03-24T10:13:26.305Z,75.14
2023-03-24T10:16:02.760Z,74.40
2023-03-24T10:18:38.380Z,73.09
2023-03-24T10:21:15.303Z,71.54
2023-03-24T10:23:52.405Z,69.68
2023-03-24T10:26:32.573Z,70.49
2023-03-24T10:29:16.575Z,71.33
2023-03-24T10:31:48.702Z,69.44
2023-03-24T10:34:17.490Z,70.64
2023-03-24T10:36:46.589Z,71.08
2023-03-24T10:39:22.445Z,74.61
2023-03-24T10:41:55.646Z,79.75
2023-03-24T10:44:25.091Z,81.49
2023-03-24T10:46:56.172Z,81.00
2023-03-24T10:49:25.765Z,82.80
2023-03-24T10:52:01.492Z,83.20
2023-03-24T10:54:30.576Z,82.61
2023-03-24T10:57:04.624Z,80.95
2023-03-24T10:59:37.443Z,79.99
2023-03-24T11:02:18.452Z,80.88
2023-03-24T11:04:53.666Z,76.78
2023-03-24T11:07:24.637Z,76.07
2023-03-24T11:10:00.275Z,76.35
2023-03-24T11:12:30.327Z,74.58
2023-03-24T11:15:22.124Z,75.65
2023-03-24T11:17:56.140Z,76.55
2023-03-24T11:20:29.806Z,76.12
2023-03-24T11:23:00.931Z,75.71
2023-03-24T11:25:32.518Z,75.98
2023-03-24T11:28:03.528Z,75.97
2023-03-24T11:30:36.730Z,76.43
2023-03-24T11:33:06.261Z,75.21
2023-03-24T11:35:41.696Z,74.87
2023-03-24T11:38:30.742Z,73.77
2023-03-24T11:41:01.213Z,74.37
2023-03-24T11:43:29.151Z,74.55
2023-03-24T11:46:02.052Z,74.87
2023-03-24T11:48:39.403Z,73.72
2023-03-24T11:51:12.633Z,73.31
2023-03-24T11:53:45.752Z,71.24
2023-03-24T11:56:18.785Z,69.81
2023-03-24T11:58:51.381Z,69.09
2023-03-24T12:01:29.585Z,69.19
2023-03-24T12:04:09.965Z,69.34
2023-03-24T12:06:53.967Z,66.83
2023-03-24T12:09:26.475Z,65.74
2023-03-24T12:12:20.297Z,62.82
2023-03-24T12:15:31.458Z,63.19
2023-03-24T12:18:16.339Z,65.86
2023-03-24T12:20:53.906Z,62.62
2023-03-24T12:23:30.008Z,61.14
2023-03-24T12:26:16.712Z,61.62
2023-03-24T12:28:53.672Z,59.78
2023-03-24T12:31:43.053Z,60.11
2023-03-24T12:34:38.345Z,60.78
2023-03-24T12:37:12.131Z,60.83
2023-03-24T12:39:52.478Z,60.19
2023-03-24T12:42:21.179Z,58.45
2023-03-24T12:45:21.647Z,57.98
2023-03-24T12:48:25.029Z,58.49
2023-03-24T12:51:09.849Z,57.96
2023-03-24T12:53:50.118Z,57.84
2023-03-24T12:56:22.450Z,56.74
2023-03-24T12:58:52.954Z,57.92
2023-03-24T13:01:27.057Z,57.01
2023-03-24T13:03:59.502Z,57.00
2023-03-24T13:06:34.482Z,56.36
2023-03-24T13:09:14.180Z,56.79
2023-03-24T13:11:51.053Z,56.29
2023-03-24T13:14:24.690Z,55.02
2023-03-24T13:16:57.385Z,55.92
2023-03-24T13:19:26.648Z,55.00
2023-03-24T13:21:57.603Z,54.56
2023-03-24T13:24:27.298Z,53.85
2023-03-24T13:27:03.562Z,53.91
2023-03-24T13:29:50.938Z,52.45
2023-03-24T13:32:30.302Z,50.13
2023-03-24T13:35:04.465Z,49.27
2023-03-24T13:37:39.274Z,48.20
2023-03-24T13:40:12.143Z,47.96
2023-03-24T13:42:45.363Z,47.23
2023-03-24T13:45:25.794Z,47.09
2023-03-24T13:48:05.458Z,47.00
2023-03-24T13:50:34.361Z,47.81
2023-03-24T13:53:08.466Z,44.84
2023-03-24T13:55:39.502Z,44.05
2023-03-24T13:58:12.776Z,43.20
2023-03-24T14:01:16.909Z,41.95
2023-03-24T14:03:46.837Z,42.96
2023-03-24T14:06:17.461Z,44.17
2023-03-24T14:09:02.532Z,45.29
2023-03-24T14:11:45.788Z,44.01
2023-03-24T14:14:24.095Z,45.12
2023-03-24T14:17:11.839Z,44.88
2023-03-24T14:19:41.781Z,44.48
2023-03-24T14:22:21.979Z,45.56
2023-03-24T14:25:01.145Z,45.13
2023-03-24T14:27:35.710Z,45.06
2023-03-24T14:30:07.571Z,45.47
2023-03-24T14:32:40.479Z,45.63
2023-03-24T14:35:23.813Z,44.40
2023-03-24T14:37:54.853Z,44.01
2023-03-24T14:40:32.173Z,45.47
2023-03-24T14:43:23.299Z,46.07
2023-03-24T14:46:01.469Z,46.69
2023-03-24T14:48:36.040Z,47.12
2023-03-24T14:51:13.796Z,46.63
2023-03-24T14:53:42.388Z,46.88
2023-03-24T14:56:15.819Z,46.49
2023-03-24T14:58:48.043Z,46.09
2023-03-24T15:01:17.323Z,46.35
2023-03-24T15:03:54.443Z,45.73
2023-03-24T15:06:24.162Z,45.84
2023-03-24T15:08:53.543Z,44.93
2023-03-24T15:11:27.136Z,45.21
2023-03-24T15:13:55.892Z,45.63
2023-03-24T15:16:26.451Z,43.89
2023-03-24T15:21:30.199Z,43.33
2023-03-24T15:24:00.842Z,42.56
2023-03-24T15:26:32.440Z,43.31
2023-03-24T15:29:02.636Z,43.58
2023-03-24T15:31:33.647Z,43.57
2023-03-24T15:34:24.813Z,43.56
2023-03-24T15:36:55.058Z,42.89
2023-03-24T15:39:27.007Z,42.73
2023-03-24T15:41:56.591Z,42.51
2023-03-24T15:44:27.885Z,42.83
2023-03-24T15:46:57.529Z,42.56
2023-03-24T15:49:27.971Z,42.39
2023-03-24T15:52:00.343Z,42.20
2023-03-24T15:54:30.881Z,42.12
2023-03-24T15:57:13.780Z,42.06
2023-03-24T15:59:46.514Z,42.25
2023-03-24T16:02:31.418Z,41.57
2023-03-24T16:05:10.910Z,42.18
2023-03-24T16:07:41.875Z,41.98
2023-03-24T16:10:32.126Z,42.12
2023-03-24T16:13:13.149Z,42.26
2023-03-24T16:15:41.695Z,42.31
2023-03-24T16:18:15.792Z,42.67
2023-03-24T16:20:43.619Z,42.78
2023-03-24T16:23:11.874Z,43.41
2023-03-24T16:25:39.842Z,44.21
2023-03-24T16:28:11.670Z,44.15
2023-03-24T16:30:43.286Z,44.32
2023-03-24T16:33:12.578Z,44.51
2023-03-24T16:35:40.713Z,44.81
2023-03-24T16:38:11.166Z,44.97
2023-03-24T16:40:41.107Z,44.45
2023-03-24T16:43:10.598Z,44.90
2023-03-24T16:45:38.372Z,44.88
2023-03-24T16:48:06.230Z,45.01
2023-03-24T16:50:37.180Z,44.77
2023-03-24T16:53:05.724Z,45.44
2023-03-24T16:55:33.896Z,45.18
2023-03-24T16:58:01.534Z,45.16
2023-03-24T17:00:31.000Z,45.21
2023-03-24T17:03:00.270Z,44.77
2023-03-24T17:05:30.332Z,45.80
2023-03-24T17:07:58.642Z,45.85
2023-03-24T17:10:26.618Z,46.11
2023-03-24T17:12:56.586Z,46.27
2023-03-24T17:15:26.442Z,46.68
2023-03-24T17:17:56.381Z,46.39
2023-03-24T17:20:25.041Z,46.75
2023-03-24T17:22:56.603Z,46.92
2023-03-24T17:25:24.627Z,46.69
2023-03-24T17:27:52.457Z,47.13
2023-03-24T17:30:21.974Z,47.54
2023-03-24T17:32:49.929Z,48.02
2023-03-24T17:35:21.339Z,47.54
2023-03-24T17:37:49.663Z,47.79
2023-03-24T17:40:19.205Z,47.74
2023-03-24T17:42:48.083Z,47.76
2023-03-24T17:45:17.878Z,48.12
2023-03-24T17:47:46.418Z,48.24
2023-03-24T17:50:14.864Z,48.34
2023-03-24T17:52:47.385Z,48.82
2023-03-24T17:55:16.898Z,48.98
2023-03-24T17:57:44.921Z,48.79
2023-03-24T18:00:14.431Z,49.09
2023-03-24T18:02:44.301Z,48.83
2023-03-24T18:05:13.991Z,48.99
2023-03-24T18:07:42.084Z,48.89
2023-03-24T18:10:11.659Z,48.76
2023-03-24T18:12:39.322Z,49.34
2023-03-24T18:15:08.111Z,49.17
2023-03-24T18:17:36.220Z,49.29
2023-03-24T18:20:10.073Z,49.80
2023-03-24T18:22:40.890Z,49.97
2023-03-24T18:25:13.344Z,50.38
2023-03-24T18:27:41.605Z,50.78
2023-03-24T18:30:12.605Z,50.84
2023-03-24T18:32:41.089Z,50.96
2023-03-24T18:35:11.203Z,51.43
2023-03-24T18:37:38.864Z,51.19
2023-03-24T18:40:08.908Z,51.38
2023-03-24T18:42:38.454Z,51.67
2023-03-24T18:45:08.083Z,51.74
2023-03-24T18:47:36.437Z,52.17
2023-03-24T18:50:04.314Z,52.28
2023-03-24T18:52:33.257Z,52.20
2023-03-24T18:55:02.330Z,52.27
2023-03-24T18:57:30.004Z,52.50
2023-03-24T19:00:00.239Z,52.73
2023-03-24T19:02:28.223Z,52.46
2023-03-24T19:04:55.928Z,52.68
2023-03-24T19:07:26.319Z,53.00
2023-03-24T19:09:55.283Z,53.13
2023-03-24T19:12:22.904Z,53.33
2023-03-24T19:14:50.759Z,53.14
2023-03-24T19:17:20.039Z,54.55
2023-03-24T19:19:47.983Z,55.26
2023-03-24T19:22:21.606Z,55.50
2023-03-24T19:24:49.441Z,54.41
2023-03-24T19:27:17.649Z,55.30
2023-03-24T19:29:46.860Z,55.64
2023-03-24T19:32:14.718Z,57.36
2023-03-24T19:34:43.940Z,59.44
2023-03-24T19:37:13.897Z,64.71
2023-03-24T19:39:41.610Z,67.72
2023-03-24T19:42:09.384Z,68.94
2023-03-24T19:44:40.231Z,69.73
2023-03-24T19:47:08.207Z,69.00
2023-03-24T19:49:36.115Z,67.60
2023-03-24T19:52:06.480Z,69.63
2023-03-24T19:54:34.480Z,71.39
2023-03-24T19:57:02.345Z,72.35
2023-03-24T19:59:30.209Z,72.81
2023-03-24T20:01:58.085Z,73.85
2023-03-24T20:04:25.994Z,73.76
2023-03-24T20:06:53.943Z,72.59
2023-03-24T20:09:23.658Z,72.64
2023-03-24T20:11:52.969Z,72.15
2023-03-24T20:14:20.825Z,72.69
2023-03-24T20:16:48.623Z,72.68
2023-03-24T20:19:16.529Z,70.90
2023-03-24T20:21:44.390Z,70.99
2023-03-24T20:24:12.110Z,71.13
2023-03-24T20:26:41.332Z,71.99
2023-03-24T20:29:09.525Z,72.60
2023-03-24T20:31:40.679Z,73.62
2023-03-24T20:34:09.046Z,74.72
2023-03-24T20:36:38.357Z,75.60
2023-03-24T20:39:06.552Z,77.94
2023-03-24T20:41:34.753Z,77.17
2023-03-24T20:44:03.867Z,75.96
2023-03-24T20:46:31.661Z,76.83
2023-03-24T20:48:59.422Z,78.69
2023-03-24T20:51:28.276Z,78.59
2023-03-24T20:53:56.090Z,78.52
2023-03-24T20:56:25.042Z,78.78
2023-03-24T20:58:52.716Z,78.73
2023-03-24T21:01:22.135Z,78.18
2023-03-24T21:03:51.249Z,78.96
2023-03-24T21:06:20.410Z,78.48
2023-03-24T21:08:48.846Z,77.93
2023-03-24T21:11:16.538Z,78.63
2023-03-24T21:13:44.187Z,77.50
2023-03-24T21:16:13.034Z,77.45
2023-03-24T21:18:43.657Z,77.59
2023-03-24T21:21:12.410Z,77.07
2023-03-24T21:23:41.695Z,75.98
2023-03-24T21:26:12.866Z,76.13
2023-03-24T21:28:41.050Z,76.31
2023-03-24T21:31:11.761Z,76.18
2023-03-24T21:33:40.813Z,74.89
2023-03-24T21:36:11.241Z,75.09
2023-03-24T21:38:39.090Z,74.78
2023-03-24T21:41:07.573Z,74.90
2023-03-24T21:43:35.564Z,75.25
2023-03-24T21:46:05.552Z,74.32
2023-03-24T21:48:35.188Z,74.50
2023-03-24T21:51:03.917Z,74.22
2023-03-24T21:53:34.805Z,74.79
2023-03-24T21:56:04.700Z,74.60
2023-03-24T21:58:33.554Z,74.47
2023-03-24T22:01:01.795Z,75.01
2023-03-24T22:03:30.332Z,74.45
2023-03-24T22:05:58.314Z,74.52
2023-03-24T22:08:30.587Z,74.40
2023-03-24T22:11:01.277Z,74.12
2023-03-24T22:13:30.597Z,73.55
2023-03-24T22:16:00.115Z,74.05
2023-03-24T22:18:30.382Z,74.30
2023-03-24T22:21:00.942Z,72.88
2023-03-24T22:23:32.622Z,73.02
2023-03-24T22:26:03.942Z,73.42
2023-03-24T22:28:33.349Z,73.05
2023-03-24T22:31:01.733Z,72.46
2023-03-24T22:33:30.123Z,72.90
2023-03-24T22:35:58.787Z,72.31
2023-03-24T22:38:27.476Z,71.56
2023-03-24T22:40:57.815Z,70.46
2023-03-24T22:43:27.734Z,71.28
2023-03-24T22:45:56.137Z,71.21
2023-03-24T22:48:24.488Z,71.24
2023-03-24T22:50:53.203Z,69.93
2023-03-24T22:53:21.602Z,70.70
2023-03-24T22:55:49.775Z,69.23
2023-03-24T22:58:18.215Z,69.05
2023-03-24T23:00:50.595Z,68.93
2023-03-24T23:03:18.312Z,68.96
2023-03-24T23:05:47.461Z,69.12
2023-03-24T23:08:16.513Z,70.27
2023-03-24T23:10:45.505Z,71.19
2023-03-24T23:13:14.356Z,70.80
2023-03-24T23:15:43.006Z,70.19
2023-03-24T23:18:12.076Z,70.63
2023-03-24T23:20:40.583Z,70.03
2023-03-24T23:23:09.222Z,70.15
2023-03-24T23:25:43.093Z,69.68
2023-03-24T23:28:10.836Z,69.60
2023-03-24T23:30:39.362Z,70.13
2023-03-24T23:33:07.189Z,70.51
2023-03-24T23:35:37.400Z,70.31
2023-03-24T23:38:06.588Z,70.28
2023-03-24T23:40:34.295Z,70.16
2023-03-24T23:43:02.935Z,69.64
2023-03-24T23:45:30.845Z,69.96
2023-03-24T23:47:58.514Z,69.88
2023-03-24T23:50:27.584Z,69.72
2023-03-24T23:52:56.844Z,69.78
2023-03-24T23:55:25.823Z,70.52
2023-03-24T23:57:54.679Z,70.33
